createdAt,value
2022-11-05T00:07:56.407Z,72.11
2022-11-05T00:10:55.512Z,71.81
2022-11-05T00:13:48.881Z,72.01
2022-11-05T00:19:38.373Z,72.40
2022-11-05T00:22:45.177Z,72.36
2022-11-05T00:25:39.258Z,72.39
2022-11-05T00:28:22.093Z,72.47
2022-11-05T00:32:10.009Z,72.66
2022-11-05T00:34:52.685Z,72.35
2022-11-05T00:37:29.354Z,72.19
2022-11-05T00:39:57.377Z,72.01
2022-11-05T00:42:44.525Z,72.10
2022-11-05T00:46:03.254Z,71.96
2022-11-05T00:49:08.950Z,71.83
2022-11-05T00:51:37.560Z,71.74
2022-11-05T00:54:26.037Z,71.59
2022-11-05T01:01:43.678Z,71.33
2022-11-05T01:04:38.048Z,70.87
2022-11-05T01:07:18.419Z,70.74
2022-11-05T01:10:17.257Z,70.40
2022-11-05T01:13:16.154Z,70.08
2022-11-05T01:20:20.330Z,70.22
2022-11-05T01:23:18.661Z,70.52
2022-11-05T01:26:10.442Z,70.72
2022-11-05T01:29:10.771Z,71.10
2022-11-05T01:33:53.618Z,71.43
2022-11-05T01:35:22.639Z,71.69
2022-11-05T01:39:14.555Z,72.48
2022-11-05T01:41:37.031Z,73.68
2022-11-05T01:44:25.513Z,74.43
2022-11-05T01:47:52.825Z,74.93
2022-11-05T01:52:27.898Z,75.91
2022-11-05T01:54:54.419Z,76.82
2022-11-05T01:57:45.327Z,77.18
2022-11-05T02:00:43.251Z,77.72
2022-11-05T02:08:45.643Z,78.09
2022-11-05T02:57:26.484Z,80.18
2022-11-05T03:00:58.654Z,80.40
2022-11-05T03:04:08.438Z,80.94
2022-11-05T03:18:50.106Z,82.00
2022-11-05T03:56:07.035Z,83.72
2022-11-05T03:58:53.387Z,84.10
2022-11-05T04:01:42.287Z,84.33
2022-11-05T04:04:11.002Z,84.15
2022-11-05T04:07:05.978Z,85.10
2022-11-05T04:10:01.068Z,86.33
2022-11-05T04:12:53.342Z,88.00
2022-11-05T04:15:40.856Z,89.83
2022-11-05T04:18:09.229Z,90.45
2022-11-05T04:20:56.132Z,90.81
2022-11-05T04:23:46.666Z,91.48
2022-11-05T04:26:14.642Z,91.99
2022-11-05T04:29:07.684Z,91.88
2022-11-05T04:31:40.724Z,92.25
2022-11-05T04:34:22.205Z,92.80
2022-11-05T04:36:59.983Z,93.28
2022-11-05T04:39:28.321Z,93.75
2022-11-05T04:42:00.532Z,94.06
2022-11-05T04:44:32.072Z,94.61
2022-11-05T04:47:00.164Z,94.86
2022-11-05T04:49:39.904Z,95.04
2022-11-05T04:52:29.306Z,94.89
2022-11-05T04:54:57.456Z,94.98
2022-11-05T04:57:27.942Z,94.85
2022-11-05T05:01:41.095Z,94.68
2022-11-05T05:04:26.754Z,94.19
2022-11-05T05:07:00.001Z,94.25
2022-11-05T05:09:41.149Z,94.32
2022-11-05T05:12:47.266Z,94.76
2022-11-05T05:15:51.638Z,94.74
2022-11-05T05:18:30.662Z,94.52
2022-11-05T05:21:50.237Z,94.35
2022-11-05T05:24:33.563Z,94.46
2022-11-05T05:27:01.999Z,94.17
2022-11-05T05:29:32.126Z,94.25
2022-11-05T05:32:11.987Z,94.23
2022-11-05T05:34:43.887Z,94.65
2022-11-05T05:37:16.716Z,95.08
2022-11-05T05:39:54.590Z,94.74
2022-11-05T05:42:40.203Z,95.07
2022-11-05T05:49:13.259Z,95.33
2022-11-05T05:52:05.557Z,95.06
2022-11-05T05:52:22.841Z,95.12
2022-11-05T05:54:38.289Z,95.12
2022-11-05T05:57:22.699Z,95.42
2022-11-05T06:00:09.096Z,95.55
2022-11-05T06:02:40.500Z,96.02
2022-11-05T06:05:34.319Z,96.39
2022-11-05T06:08:24.234Z,96.53
2022-11-05T06:10:57.467Z,96.18
2022-11-05T06:13:37.264Z,96.47
2022-11-05T06:16:08.799Z,96.97
2022-11-05T06:18:41.156Z,97.44
2022-11-05T06:21:17.572Z,97.60
2022-11-05T06:23:45.995Z,98.31
2022-11-05T06:26:16.833Z,98.52
2022-11-05T06:28:50.034Z,98.72
2022-11-05T06:31:19.412Z,98.93
2022-11-05T06:33:58.820Z,99.23
2022-11-05T06:36:35.793Z,98.89
2022-11-05T06:39:12.864Z,99.08
2022-11-05T06:42:12.115Z,98.84
2022-11-05T06:44:58.211Z,99.09
2022-11-05T06:47:33.104Z,99.29
2022-11-05T06:50:01.252Z,99.42
2022-11-05T06:52:31.384Z,99.50
2022-11-05T06:55:09.168Z,99.48
2022-11-05T06:57:38.850Z,99.47
2022-11-05T07:00:22.662Z,99.13
2022-11-05T07:03:07.335Z,99.15
2022-11-05T07:05:39.399Z,98.94
2022-11-05T07:09:17.874Z,98.65
2022-11-05T07:11:31.406Z,98.33
2022-11-05T07:14:06.795Z,98.08
2022-11-05T07:16:38.041Z,97.40
2022-11-05T07:19:10.030Z,97.08
2022-11-05T07:21:56.345Z,96.58
2022-11-05T07:24:24.637Z,96.20
2022-11-05T07:26:57.457Z,95.83
2022-11-05T07:29:34.047Z,95.70
2022-11-05T07:32:07.894Z,95.78
2022-11-05T07:34:41.755Z,95.39
2022-11-05T07:37:14.552Z,95.29
2022-11-05T07:39:45.704Z,94.89
2022-11-05T07:42:18.323Z,94.48
2022-11-05T07:44:52.854Z,94.69
2022-11-05T07:47:24.616Z,94.30
2022-11-05T07:49:54.318Z,93.97
2022-11-05T07:52:22.179Z,93.79
2022-11-05T07:54:52.134Z,93.73
2022-11-05T07:57:21.667Z,93.43
2022-11-05T07:59:49.686Z,93.36
2022-11-05T08:02:17.938Z,93.27
2022-11-05T08:04:46.455Z,93.50
2022-11-05T08:07:14.754Z,93.57
2022-11-05T08:09:46.123Z,93.51
2022-11-05T08:12:21.688Z,93.38
2022-11-05T08:18:32.297Z,93.80
2022-11-05T08:21:12.408Z,93.95
2022-11-05T08:23:43.392Z,93.85
2022-11-05T08:26:14.330Z,94.15
2022-11-05T08:28:42.741Z,94.07
2022-11-05T08:31:11.009Z,94.06
2022-11-05T08:33:39.144Z,94.01
2022-11-05T08:36:07.459Z,93.86
2022-11-05T08:38:40.402Z,93.75
2022-11-05T09:50:37.621Z,76.78
2022-11-05T09:53:23.428Z,76.20
2022-11-05T09:56:36.538Z,75.28
2022-11-05T09:59:41.620Z,74.98
2022-11-05T10:02:41.963Z,74.85
2022-11-05T10:05:18.288Z,74.71
2022-11-05T10:08:21.255Z,74.62
2022-11-05T10:15:23.347Z,74.76
2022-11-05T10:18:03.376Z,74.66
2022-11-05T10:18:59.916Z,74.71
2022-11-05T10:28:56.261Z,74.85
2022-11-05T10:29:24.859Z,74.55
2022-11-05T10:31:25.327Z,74.39
2022-11-05T11:02:45.951Z,69.87
2022-11-05T11:23:50.385Z,68.71
2022-11-05T11:38:23.556Z,65.00
2022-11-05T12:50:49.756Z,65.21
2022-11-05T13:16:10.834Z,68.16
2022-11-05T13:19:00.771Z,68.48
2022-11-05T13:22:57.002Z,68.79
2022-11-05T13:29:32.731Z,68.62
2022-11-05T13:56:39.541Z,70.27
2022-11-05T13:59:48.124Z,70.58
2022-11-05T14:07:23.399Z,71.62
2022-11-05T14:07:51.515Z,69.67
2022-11-05T14:10:10.306Z,72.01
2022-11-05T14:10:13.762Z,70.90
2022-11-05T14:10:57.454Z,69.94
2022-11-05T14:12:40.554Z,71.78
2022-11-05T14:15:31.163Z,71.97
2022-11-05T14:18:13.349Z,72.32
2022-11-05T14:21:07.072Z,72.67
2022-11-05T14:24:09.551Z,73.27
2022-11-05T14:26:43.727Z,73.80
2022-11-05T14:29:17.693Z,73.93
2022-11-05T14:32:13.828Z,74.67
2022-11-05T14:35:44.155Z,75.09
2022-11-05T14:38:29.093Z,75.70
2022-11-05T14:41:18.825Z,76.07
2022-11-05T14:50:58.479Z,76.80
2022-11-05T14:52:37.609Z,77.02
2022-11-05T15:18:57.290Z,79.66
2022-11-05T15:20:37.188Z,79.60
2022-11-05T15:34:39.755Z,80.42
2022-11-05T15:37:24.897Z,80.81
2022-11-05T15:47:03.412Z,81.12
2022-11-05T19:56:53.727Z,90.40
2022-11-05T20:16:32.800Z,91.57
2022-11-05T21:05:03.599Z,90.73
2022-11-05T21:08:57.178Z,90.79
2022-11-05T21:16:23.780Z,90.93
2022-11-05T21:19:05.819Z,91.00
2022-11-05T21:36:35.929Z,91.85
2022-11-05T21:56:55.911Z,93.20
2022-11-05T22:08:26.066Z,93.67
2022-11-05T22:12:12.623Z,94.00
2022-11-05T22:14:44.271Z,94.56
2022-11-05T22:22:40.523Z,94.91
2022-11-05T22:30:33.738Z,95.33
2022-11-05T22:33:13.652Z,95.59
2022-11-05T22:40:20.299Z,96.48
2022-11-05T23:29:16.014Z,98.53
2022-11-05T23:36:16.309Z,99.14
